createdAt,value
2023-06-07T00:09:23.493Z,99596.28
2023-06-07T00:19:26.673Z,99592.53
2023-06-07T00:29:28.217Z,99591.09
2023-06-07T00:39:29.840Z,99595.22
2023-06-07T00:49:31.273Z,99597.75
2023-06-07T00:59:32.700Z,99591.53
2023-06-07T01:09:34.128Z,99592.19
2023-06-07T01:19:37.075Z,99593.47
2023-06-07T01:29:38.547Z,99587.22
2023-06-07T01:39:41.224Z,99584.38
2023-06-07T01:49:43.080Z,99574.34
2023-06-07T02:00:23.001Z,99570.38
2023-06-07T02:10:25.689Z,99563.69
2023-06-07T02:20:30.196Z,99557.03
2023-06-07T02:30:32.092Z,99551.00
2023-06-07T02:40:34.121Z,99546.44
2023-06-07T02:50:35.785Z,99536.66
2023-06-07T03:00:37.395Z,99541.22
2023-06-07T03:10:39.059Z,99546.25
2023-06-07T03:20:40.634Z,99552.72
2023-06-07T03:30:42.632Z,99551.69
2023-06-07T03:40:44.228Z,99554.69
2023-06-07T03:50:45.843Z,99562.81
2023-06-07T04:00:50.187Z,99564.63
2023-06-07T04:10:51.951Z,99560.72
2023-06-07T04:20:53.404Z,99563.03
2023-06-07T04:30:58.038Z,99566.41
2023-06-07T04:41:02.122Z,99560.75
2023-06-07T04:51:06.626Z,99569.13
2023-06-07T05:01:11.742Z,99575.41
2023-06-07T05:11:13.360Z,99576.69
2023-06-07T05:21:16.129Z,99574.19
2023-06-07T05:31:20.084Z,99587.13
2023-06-07T05:41:21.575Z,99584.19
2023-06-07T05:51:23.879Z,99599.56
2023-06-07T06:01:25.331Z,99593.97
2023-06-07T06:11:26.904Z,99601.66
2023-06-07T06:21:28.320Z,99592.72
2023-06-07T06:31:29.820Z,99585.19
2023-06-07T06:41:31.443Z,99603.56
2023-06-07T06:51:32.937Z,99622.75
2023-06-07T07:01:44.448Z,99633.38
2023-06-07T07:11:45.962Z,99638.56
2023-06-07T07:21:47.434Z,99644.59
2023-06-07T07:31:49.012Z,99650.09
2023-06-07T07:41:50.460Z,99653.84
2023-06-07T07:51:51.975Z,99654.03
2023-06-07T08:01:53.763Z,99651.38
2023-06-07T08:11:55.260Z,99648.84
2023-06-07T08:21:56.724Z,99648.16
2023-06-07T08:31:58.545Z,99644.53
2023-06-07T08:41:59.969Z,99643.56
2023-06-07T08:52:14.775Z,99629.09
2023-06-07T09:02:17.607Z,99632.50
2023-06-07T09:12:19.020Z,99626.25
2023-06-07T09:22:24.226Z,99629.56
2023-06-07T09:32:25.959Z,99623.97
2023-06-07T09:42:27.481Z,99635.59
2023-06-07T09:52:30.627Z,99622.44
2023-06-07T10:02:32.679Z,99635.31
2023-06-07T10:12:36.344Z,99625.56
2023-06-07T10:22:39.141Z,99610.16
2023-06-07T10:32:41.004Z,99606.28
2023-06-07T10:42:44.689Z,99586.47
2023-06-07T10:52:56.338Z,99583.38
2023-06-07T11:03:07.871Z,99567.19
2023-06-07T11:13:09.495Z,99590.28
2023-06-07T11:23:30.014Z,99571.97
2023-06-07T11:33:32.088Z,99580.28
2023-06-07T11:43:33.774Z,99571.41
2023-06-07T11:53:35.295Z,99554.00
2023-06-07T12:03:37.316Z,99545.69
2023-06-07T12:13:40.455Z,99546.28
2023-06-07T12:23:52.199Z,99567.06
2023-06-07T12:34:03.000Z,99563.50
2023-06-07T12:44:05.723Z,99576.97
2023-06-07T12:54:07.174Z,99576.38
2023-06-07T13:04:08.952Z,99582.78
2023-06-07T13:14:10.761Z,99570.84
2023-06-07T13:24:12.571Z,99574.16
2023-06-07T13:34:14.169Z,99585.13
2023-06-07T13:44:18.756Z,99570.28
2023-06-07T13:54:20.821Z,99562.56
2023-06-07T14:04:22.715Z,99569.78
2023-06-07T14:14:24.451Z,99566.13
2023-06-07T14:24:25.966Z,99547.31
2023-06-07T14:34:27.446Z,99547.63
2023-06-07T14:44:29.001Z,99534.97
2023-06-07T14:54:30.502Z,99525.50
2023-06-07T15:04:32.013Z,99514.75
2023-06-07T15:14:33.892Z,99495.63
2023-06-07T15:24:35.347Z,99500.25
2023-06-07T15:34:36.766Z,99491.25
2023-06-07T15:44:38.735Z,99475.94
2023-06-07T15:54:40.184Z,99473.47
2023-06-07T16:04:41.724Z,99471.56
2023-06-07T16:14:44.287Z,99469.81
2023-06-07T16:24:46.334Z,99468.88
2023-06-07T16:34:48.569Z,99455.03
2023-06-07T16:44:50.007Z,99438.56
2023-06-07T16:54:51.444Z,99447.91
2023-06-07T17:04:52.884Z,99444.22
2023-06-07T17:14:55.259Z,99435.91
2023-06-07T17:24:56.866Z,99449.41
2023-06-07T17:34:58.318Z,99445.38
2023-06-07T17:45:00.863Z,99439.97
2023-06-07T17:55:02.278Z,99441.22
2023-06-07T18:05:04.675Z,99451.38
2023-06-07T18:15:08.243Z,99447.38
2023-06-07T18:25:13.166Z,99451.50
2023-06-07T18:35:15.640Z,99450.28
2023-06-07T18:45:17.082Z,99457.72
2023-06-07T18:55:18.523Z,99456.31
2023-06-07T19:05:20.186Z,99446.00
2023-06-07T19:15:21.652Z,99458.38
2023-06-07T19:25:23.080Z,99461.44
2023-06-07T19:35:25.609Z,99466.50
2023-06-07T19:45:27.310Z,99468.44
2023-06-07T19:55:28.916Z,99468.53
2023-06-07T20:05:30.527Z,99473.25
2023-06-07T20:15:32.111Z,99468.75
2023-06-07T20:25:33.695Z,99468.59
2023-06-07T20:35:35.293Z,99475.53
2023-06-07T20:45:36.884Z,99476.44
2023-06-07T20:55:38.530Z,99477.13
2023-06-07T21:05:40.025Z,99475.72
2023-06-07T21:15:41.796Z,99471.81
2023-06-07T21:25:43.762Z,99463.06
2023-06-07T21:35:45.371Z,99461.22
2023-06-07T21:45:46.883Z,99469.34
2023-06-07T21:55:48.493Z,99470.44
2023-06-07T22:05:49.990Z,99466.06
2023-06-07T22:15:51.754Z,99459.19
2023-06-07T22:25:53.862Z,99456.97
2023-06-07T22:35:58.630Z,99450.50
2023-06-07T22:46:00.104Z,99445.28
2023-06-07T22:56:01.542Z,99445.75
2023-06-07T23:06:03.121Z,99433.25
2023-06-07T23:16:06.777Z,99432.66
2023-06-07T23:26:09.453Z,99433.09
2023-06-07T23:36:10.905Z,99424.16
2023-06-07T23:46:12.815Z,99423.56
2023-06-07T23:56:14.471Z,99417.75
